Sedbergh, United Kingdom
Current Conditions -  °F | °C
As of 1:50 PM on Tuesday 27 Jan 2015 (Local Time) from EGXE Reporting Station
Broken Clouds Broken Clouds  
Wind Chill: 42°   Ceiling: 2300
Heat Index: 48°   Visibility: 6mi
Dew Point: 37°   Wind: 15mph
Humidity: 66%   Direction: 270°W
Pressure: 30.18"   Gusts: NA
Location:  54.32°N, 2.53°W
Report Text: EGXE 271350Z 27013KT 9999 BKN023 09/03 Q1022 WHT TEMPO BKN025 BLU
Loading
Personal Weather Stations






























Interactive Weather Map New forecast layout! Learn more

10-Day Weather Forecast

Advertisements
Track Severe Weather on mobile